Time;durP1;ratioP1;P1;durP2;ratioP2;P2;SDS_P1;SDS_P2;PMS_P1;PMS_P2;Temp;Humidity;BMP_temperature;BMP_pressure;BME280_temperature;BME280_humidity;BME280_pressure;Samples;Min_cycle;Max_cycle;Signal;HPM_P1;HPM_P2
2021/05/29 00:01:25;;;;;;;3.42;3.13;;;12.20;94.40;;;;;;5110809;28;20885;-69
2021/05/29 00:03:51;;;;;;;4.05;3.70;;;12.20;94.50;;;;;;5110616;28;20208;-69
2021/05/29 00:06:19;;;;;;;6.47;3.60;;;12.00;95.60;;;;;;5110523;28;20294;-69
2021/05/29 00:08:45;;;;;;;3.90;3.60;;;12.00;94.60;;;;;;5109770;28;20204;-69
2021/05/29 00:11:12;;;;;;;3.83;3.45;;;12.00;94.70;;;;;;5108779;28;20195;-69
2021/05/29 00:13:40;;;;;;;3.65;3.35;;;12.00;94.70;;;;;;5108998;28;20204;-69
2021/05/29 00:16:09;;;;;;;3.38;3.17;;;12.00;94.40;;;;;;5109104;28;20204;-69
2021/05/29 00:18:35;;;;;;;4.60;2.95;;;12.10;94.10;;;;;;5108670;28;20290;-69
2021/05/29 00:21:01;;;;;;;3.50;3.20;;;12.10;94.00;;;;;;5108619;28;20327;-69
2021/05/29 00:23:28;;;;;;;3.28;3.08;;;12.10;93.80;;;;;;5108895;28;20287;-69
2021/05/29 00:25:55;;;;;;;6.88;3.33;;;12.10;93.90;;;;;;5108705;28;20207;-69
2021/05/29 00:28:21;;;;;;;3.88;3.47;;;12.00;94.60;;;;;;5108994;28;20290;-69
2021/05/29 00:30:47;;;;;;;3.50;3.30;;;12.00;94.40;;;;;;5108613;28;20197;-69
2021/05/29 00:33:14;;;;;;;4.47;4.07;;;11.90;95.30;;;;;;5108757;28;20243;-69
2021/05/29 00:35:41;;;;;;;5.03;4.47;;;11.80;96.80;;;;;;5108792;28;20204;-69
2021/05/29 00:38:08;;;;;;;5.38;4.93;;;11.80;97.00;;;;;;5108813;28;20204;-69
2021/05/29 00:40:36;;;;;;;5.10;4.63;;;11.70;97.00;;;;;;5108029;28;20227;-69
2021/05/29 00:43:03;;;;;;;5.07;4.57;;;11.80;96.30;;;;;;5108800;28;20210;-69
2021/05/29 00:45:30;;;;;;;5.65;5.07;;;11.70;97.20;;;;;;5108379;28;20260;-69
2021/05/29 00:47:59;;;;;;;5.18;4.78;;;11.60;97.50;;;;;;5108656;28;20214;-69
2021/05/29 00:50:26;;;;;;;5.68;5.18;;;11.60;97.20;;;;;;5107999;28;20200;-69
2021/05/29 00:52:52;;;;;;;5.03;4.53;;;11.50;97.10;;;;;;5108601;28;20250;-69
2021/05/29 00:55:19;;;;;;;6.22;5.22;;;11.50;97.70;;;;;;5108134;28;20256;-69
2021/05/29 00:57:47;;;;;;;7.03;6.32;;;11.40;98.90;;;;;;5108838;28;20207;-69
2021/05/29 01:00:18;;;;;;;6.20;5.70;;;11.40;98.40;;;;;;5108000;28;20314;-69
2021/05/29 01:02:44;;;;;;;7.90;5.60;;;11.40;98.00;;;;;;5093125;28;20195;-69
2021/05/29 01:05:14;;;;;;;5.65;5.03;;;11.40;98.00;;;;;;5108038;28;20218;-69
2021/05/29 01:07:40;;;;;;;6.10;5.60;;;11.40;97.80;;;;;;5068958;28;1103450;-69
2021/05/29 01:10:08;;;;;;;6.00;5.38;;;11.30;97.60;;;;;;5109495;28;20288;-69
2021/05/29 01:12:35;;;;;;;7.88;5.82;;;11.30;98.90;;;;;;5108318;28;20198;-69
2021/05/29 01:15:05;;;;;;;6.18;5.57;;;11.40;98.60;;;;;;5109347;28;20229;-69
2021/05/29 01:17:32;;;;;;;7.03;5.50;;;11.30;98.40;;;;;;5108990;28;20204;-69
2021/05/29 01:19:58;;;;;;;4.90;4.40;;;11.30;98.40;;;;;;5109157;28;20207;-69
2021/05/29 01:22:44;;;;;;;6.13;4.93;;;11.20;98.40;;;;;;5108997;28;20290;-69
2021/05/29 01:25:18;;;;;;;6.30;5.80;;;11.10;98.70;;;;;;5108552;28;20203;-69
2021/05/29 01:27:44;;;;;;;5.32;4.65;;;11.10;98.80;;;;;;5104715;28;20207;-69
2021/05/29 01:30:13;;;;;;;6.25;5.75;;;11.10;98.90;;;;;;5099648;28;20224;-69
2021/05/29 01:32:40;;;;;;;5.57;5.07;;;11.10;98.90;;;;;;5094662;28;20195;-69
2021/05/29 01:35:09;;;;;;;6.57;5.47;;;11.10;99.10;;;;;;5108727;28;20195;-69
2021/05/29 01:37:37;;;;;;;5.50;5.07;;;11.00;99.00;;;;;;5108973;28;20300;-69
2021/05/29 01:40:07;;;;;;;6.28;5.65;;;10.90;99.00;;;;;;5108789;28;20278;-69
2021/05/29 01:42:35;;;;;;;7.07;6.47;;;10.90;99.30;;;;;;5108743;28;20200;-69
2021/05/29 01:45:04;;;;;;;5.95;5.45;;;10.90;99.70;;;;;;5107077;28;20584;-70
2021/05/29 01:47:32;;;;;;;7.78;6.15;;;10.90;99.90;;;;;;5108481;28;20287;-69
2021/05/29 01:49:58;;;;;;;9.70;5.65;;;10.90;99.90;;;;;;5108754;28;20887;-69
2021/05/29 01:52:47;;;;;;;6.03;5.47;;;10.90;99.90;;;;;;5108746;28;20949;-69
2021/05/29 01:55:14;;;;;;;6.88;6.28;;;10.80;99.90;;;;;;5108621;28;20227;-70
2021/05/29 01:57:40;;;;;;;8.27;6.35;;;10.90;99.90;;;;;;5108307;28;20207;-70
2021/05/29 02:00:08;;;;;;;6.93;6.22;;;10.80;99.90;;;;;;5108379;28;20596;-70
2021/05/29 02:02:35;;;;;;;7.88;7.07;;;10.70;99.90;;;;;;5107994;28;20204;-70
2021/05/29 02:05:09;;;;;;;7.75;7.10;;;10.70;99.90;;;;;;5107410;28;20692;-69
2021/05/29 02:07:35;;;;;;;8.10;6.80;;;10.80;99.90;;;;;;5108544;28;20201;-69
2021/05/29 02:10:02;;;;;;;6.57;5.90;;;10.70;99.90;;;;;;5107575;28;20295;-69
2021/05/29 02:12:37;;;;;;;7.55;6.22;;;10.80;99.90;;;;;;5107454;28;20206;-69
2021/05/29 02:15:05;;;;;;;6.43;5.82;;;10.70;99.90;;;;;;5107414;28;20209;-69
2021/05/29 02:17:32;;;;;;;7.43;6.78;;;10.70;99.90;;;;;;5108272;28;20199;-69
2021/05/29 02:19:58;;;;;;;8.65;7.15;;;10.70;99.90;;;;;;5108034;28;20707;-69
2021/05/29 02:22:24;;;;;;;6.90;6.20;;;10.60;99.90;;;;;;5107486;28;20700;-69
2021/05/29 02:24:50;;;;;;;6.63;6.00;;;10.60;99.90;;;;;;5107542;28;20257;-69
2021/05/29 02:27:17;;;;;;;7.22;6.53;;;10.60;99.90;;;;;;5107987;28;20199;-69
2021/05/29 02:29:44;;;;;;;7.28;6.70;;;10.60;99.90;;;;;;5107756;28;20573;-69
2021/05/29 02:32:10;;;;;;;6.75;6.05;;;10.50;99.90;;;;;;5106901;28;20196;-69
2021/05/29 02:34:36;;;;;;;6.25;5.68;;;10.50;99.90;;;;;;5107561;28;20290;-69
2021/05/29 02:37:03;;;;;;;6.80;6.10;;;10.50;99.90;;;;;;5107717;28;20231;-69
2021/05/29 02:39:29;;;;;;;6.80;6.20;;;10.40;99.90;;;;;;5100308;28;20208;-69
2021/05/29 02:41:56;;;;;;;7.43;6.68;;;10.40;99.90;;;;;;5095180;28;20814;-70
2021/05/29 02:44:22;;;;;;;6.47;5.85;;;10.40;99.90;;;;;;5086817;28;20260;-70
2021/05/29 02:46:49;;;;;;;7.57;6.88;;;10.40;99.90;;;;;;5087039;28;20293;-70
2021/05/29 02:49:16;;;;;;;8.20;7.40;;;10.30;99.90;;;;;;5099303;28;20663;-70
2021/05/29 02:51:42;;;;;;;8.88;8.02;;;10.30;99.90;;;;;;5106718;28;20203;-70
2021/05/29 02:54:08;;;;;;;7.55;6.80;;;10.30;99.90;;;;;;5106830;28;20290;-69
2021/05/29 02:56:35;;;;;;;8.10;7.25;;;10.20;99.90;;;;;;5107336;28;20236;-69
2021/05/29 02:59:01;;;;;;;8.20;7.40;;;10.20;99.90;;;;;;5107333;28;20223;-69
2021/05/29 03:01:28;;;;;;;8.35;7.55;;;10.10;99.90;;;;;;5106461;28;20273;-70
2021/05/29 03:03:55;;;;;;;8.00;7.30;;;10.10;99.90;;;;;;5107219;28;20200;-69
2021/05/29 03:06:21;;;;;;;8.50;7.60;;;10.00;99.90;;;;;;5106560;28;20210;-69
2021/05/29 03:08:47;;;;;;;8.48;7.68;;;10.00;99.90;;;;;;5106310;28;20322;-69
2021/05/29 03:11:14;;;;;;;9.00;8.07;;;10.00;99.90;;;;;;5106284;28;20196;-69
2021/05/29 03:13:40;;;;;;;7.65;6.85;;;10.00;99.90;;;;;;5106803;28;20677;-69
2021/05/29 03:16:07;;;;;;;7.93;7.13;;;10.00;99.90;;;;;;5106667;28;20749;-69
2021/05/29 03:18:33;;;;;;;7.50;6.80;;;10.00;99.90;;;;;;5107210;28;20221;-69
2021/05/29 03:21:01;;;;;;;7.60;7.00;;;10.00;99.90;;;;;;5106750;28;20354;-70
2021/05/29 03:23:27;;;;;;;8.25;7.55;;;10.00;99.90;;;;;;5106876;28;20310;-69
2021/05/29 03:25:54;;;;;;;9.13;8.23;;;10.10;99.90;;;;;;5106854;28;20199;-70
2021/05/29 03:28:20;;;;;;;8.85;7.95;;;10.10;99.90;;;;;;5107043;28;20795;-70
2021/05/29 03:30:46;;;;;;;8.27;7.55;;;10.10;99.90;;;;;;5106916;28;20195;-70
2021/05/29 03:33:13;;;;;;;7.00;6.40;;;10.10;99.90;;;;;;5106901;28;20222;-69
2021/05/29 03:35:40;;;;;;;7.90;6.15;;;10.20;99.90;;;;;;5106614;28;20214;-70
2021/05/29 03:38:07;;;;;;;8.15;6.97;;;10.20;99.90;;;;;;5106810;28;20212;-70
2021/05/29 03:40:34;;;;;;;7.35;6.75;;;10.20;99.90;;;;;;5106357;28;20234;-70
2021/05/29 03:43:00;;;;;;;6.80;6.20;;;10.30;99.90;;;;;;5106708;28;20275;-70
2021/05/29 03:45:26;;;;;;;8.93;7.18;;;10.30;99.90;;;;;;5105916;28;20228;-70
2021/05/29 03:47:53;;;;;;;7.22;6.63;;;10.40;99.90;;;;;;5106810;28;20203;-70
2021/05/29 03:50:25;;;;;;;8.60;7.28;;;10.50;99.90;;;;;;5107179;28;20195;-69
2021/05/29 03:52:52;;;;;;;8.00;7.20;;;10.50;99.90;;;;;;5106490;28;20290;-70
2021/05/29 03:55:20;;;;;;;7.13;6.43;;;10.60;99.90;;;;;;5106429;28;20761;-70
2021/05/29 03:57:47;;;;;;;8.35;7.57;;;10.70;99.90;;;;;;5106565;28;20212;-70
2021/05/29 04:00:17;;;;;;;7.90;6.70;;;10.80;99.90;;;;;;5106865;28;20290;-70
2021/05/29 04:02:44;;;;;;;7.38;6.68;;;11.00;99.90;;;;;;5106413;28;20310;-70
2021/05/29 04:05:12;;;;;;;6.63;5.78;;;11.10;99.90;;;;;;5106556;28;20290;-70
2021/05/29 04:07:39;;;;;;;7.15;6.50;;;11.40;99.90;;;;;;5106305;28;20221;-70
2021/05/29 04:10:07;;;;;;;6.40;5.90;;;12.40;99.90;;;;;;5106652;28;20939;-70
2021/05/29 04:12:34;;;;;;;8.35;6.25;;;13.90;99.90;;;;;;5105845;28;20657;-70
2021/05/29 04:15:01;;;;;;;6.07;5.57;;;14.80;99.20;;;;;;5106149;28;20366;-70
2021/05/29 04:17:28;;;;;;;6.88;6.18;;;15.80;97.10;;;;;;5106386;28;20200;-70
2021/05/29 04:19:54;;;;;;;6.72;6.18;;;15.80;96.00;;;;;;5106544;28;20203;-70
2021/05/29 04:22:21;;;;;;;6.93;6.28;;;15.80;95.50;;;;;;5106092;28;20890;-70
2021/05/29 04:24:49;;;;;;;6.88;6.25;;;15.70;95.60;;;;;;5105819;28;20809;-70
2021/05/29 04:27:15;;;;;;;7.35;6.75;;;15.70;95.10;;;;;;5104826;28;20303;-70
2021/05/29 04:29:42;;;;;;;6.80;5.90;;;15.70;95.40;;;;;;5098598;28;20728;-70
2021/05/29 04:32:09;;;;;;;7.57;6.90;;;15.70;95.10;;;;;;5110148;28;20210;-70
2021/05/29 04:34:35;;;;;;;7.53;6.93;;;15.70;95.30;;;;;;5109431;28;20210;-70
2021/05/29 04:37:01;;;;;;;6.63;5.80;;;16.20;94.80;;;;;;5110094;28;20307;-70
2021/05/29 04:39:28;;;;;;;5.87;5.37;;;16.80;94.00;;;;;;5110000;28;20551;-70
2021/05/29 04:41:54;;;;;;;6.27;5.77;;;17.50;92.70;;;;;;5109811;28;20661;-70
2021/05/29 04:44:20;;;;;;;6.20;5.70;;;18.70;91.30;;;;;;5109763;28;21264;-70
2021/05/29 04:46:51;;;;;;;6.20;5.60;;;20.00;87.40;;;;;;5108964;28;20629;-70
2021/05/29 04:49:18;;;;;;;5.70;5.27;;;20.60;85.30;;;;;;5109171;28;20640;-70
2021/05/29 04:51:45;;;;;;;6.00;5.50;;;22.10;79.90;;;;;;5109714;28;20670;-70
2021/05/29 04:54:12;;;;;;;5.40;5.00;;;22.90;76.40;;;;;;5109765;28;20633;-70
2021/05/29 04:56:38;;;;;;;5.57;5.17;;;23.60;73.10;;;;;;5109125;28;20592;-70
2021/05/29 04:59:05;;;;;;;6.10;5.57;;;24.50;70.80;;;;;;5109729;28;21083;-70
2021/05/29 05:01:32;;;;;;;6.30;5.73;;;24.70;68.60;;;;;;5108943;28;20762;-71
2021/05/29 05:04:00;;;;;;;5.30;5.00;;;24.90;67.60;;;;;;5109303;28;20619;-70
2021/05/29 05:06:27;;;;;;;4.83;4.53;;;25.00;67.30;;;;;;5109598;28;20716;-70
2021/05/29 05:08:54;;;;;;;6.70;5.17;;;25.60;65.50;;;;;;5108633;28;20744;-71
2021/05/29 05:11:20;;;;;;;5.37;4.97;;;25.50;63.50;;;;;;5109215;28;21192;-70
2021/05/29 05:13:47;;;;;;;5.60;5.20;;;25.20;64.00;;;;;;5109444;28;20724;-70
2021/05/29 05:16:14;;;;;;;5.40;5.00;;;23.90;65.20;;;;;;5108467;28;20645;-70
2021/05/29 05:18:40;;;;;;;5.30;4.90;;;23.20;67.80;;;;;;5109077;28;20812;-70
2021/05/29 05:21:08;;;;;;;5.30;4.90;;;23.20;68.30;;;;;;5108976;28;20672;-70
2021/05/29 05:23:34;;;;;;;6.00;5.50;;;24.30;67.10;;;;;;5108925;28;20658;-70
2021/05/29 05:26:01;;;;;;;5.67;5.27;;;25.60;64.80;;;;;;5108807;28;20669;-71
2021/05/29 05:28:29;;;;;;;4.80;4.50;;;25.60;62.80;;;;;;5108249;28;20616;-71
2021/05/29 05:30:56;;;;;;;5.00;4.60;;;26.00;61.40;;;;;;5108372;28;20633;-72
2021/05/29 05:33:23;;;;;;;5.03;4.57;;;26.30;60.10;;;;;;5109007;28;20706;-72
2021/05/29 05:35:50;;;;;;;4.40;4.10;;;26.60;58.10;;;;;;5108585;28;20622;-72
2021/05/29 05:38:18;;;;;;;5.40;5.10;;;27.20;58.10;;;;;;5109273;28;20636;-72
2021/05/29 05:40:44;;;;;;;5.80;5.27;;;27.50;57.60;;;;;;5106936;28;20683;-72
2021/05/29 05:43:10;;;;;;;5.20;4.90;;;27.50;57.90;;;;;;5108835;28;20721;-72
2021/05/29 05:45:37;;;;;;;6.10;5.70;;;27.40;57.70;;;;;;5108400;28;20621;-72
2021/05/29 05:48:04;;;;;;;5.40;5.00;;;27.60;56.90;;;;;;5108270;28;20622;-72
2021/05/29 05:50:31;;;;;;;5.83;5.43;;;27.40;56.80;;;;;;5108282;28;20637;-71
2021/05/29 05:52:57;;;;;;;5.30;4.90;;;28.00;55.70;;;;;;5108617;28;20669;-72
2021/05/29 05:55:24;;;;;;;5.27;4.80;;;27.20;56.60;;;;;;5108014;28;21596;-71
2021/05/29 05:57:51;;;;;;;5.00;4.60;;;27.40;56.90;;;;;;5108512;28;20728;-72
2021/05/29 06:00:20;;;;;;;5.37;4.93;;;28.10;56.10;;;;;;5108283;28;20630;-72
2021/05/29 06:02:47;;;;;;;4.57;4.27;;;28.30;55.40;;;;;;5108231;28;20638;-72
2021/05/29 06:05:14;;;;;;;4.40;4.10;;;27.90;54.10;;;;;;5107449;28;20633;-72
2021/05/29 06:07:40;;;;;;;4.07;3.77;;;28.00;53.80;;;;;;5108225;28;20640;-72
2021/05/29 06:10:08;;;;;;;4.20;4.00;;;28.00;52.80;;;;;;5108782;28;20660;-72
2021/05/29 06:12:39;;;;;;;4.10;3.80;;;28.60;53.60;;;;;;5107713;28;21460;-72
2021/05/29 06:18:03;;;;;;;4.50;4.20;;;28.80;53.30;;;;;;5087623;28;20600;-72
2021/05/29 06:20:30;;;;;;;5.87;4.27;;;28.70;52.30;;;;;;5087496;28;21186;-72
2021/05/29 06:22:56;;;;;;;4.80;4.50;;;28.30;52.90;;;;;;5087848;28;20622;-72
2021/05/29 06:25:23;;;;;;;4.20;4.00;;;28.60;52.10;;;;;;5086827;28;20729;-72
2021/05/29 06:27:50;;;;;;;4.83;4.43;;;28.20;53.10;;;;;;5093094;28;21142;-71
2021/05/29 06:30:23;;;;;;;4.43;4.13;;;27.60;52.80;;;;;;5095227;28;20656;-73
2021/05/29 06:32:50;;;;;;;3.90;3.60;;;26.80;55.00;;;;;;5100576;28;20629;-69
2021/05/29 06:35:17;;;;;;;3.53;3.33;;;27.80;53.00;;;;;;5102493;28;20655;-69
2021/05/29 06:37:43;;;;;;;4.00;3.80;;;27.90;52.10;;;;;;5105349;28;20741;-69
2021/05/29 06:40:10;;;;;;;3.77;3.47;;;27.60;52.50;;;;;;5101170;28;20640;-69
2021/05/29 06:42:37;;;;;;;4.07;3.77;;;28.50;51.10;;;;;;5106772;28;20629;-69
2021/05/29 06:45:06;;;;;;;3.90;3.13;;;27.20;52.30;;;;;;5104123;28;20622;-69
2021/05/29 06:47:34;;;;;;;3.30;3.10;;;26.70;53.30;;;;;;5104998;28;20716;-68
2021/05/29 06:50:00;;;;;;;3.60;3.40;;;27.80;51.00;;;;;;5103505;28;21184;-69
2021/05/29 06:52:29;;;;;;;3.10;2.90;;;28.40;51.90;;;;;;5095185;28;21593;-68
2021/05/29 06:55:02;;;;;;;2.73;2.53;;;28.90;50.10;;;;;;5103794;28;20626;-71
2021/05/29 07:00:15;;;;;;;3.30;3.10;;;28.40;48.60;;;;;;5104578;28;20657;-71
2021/05/29 07:02:42;;;;;;;2.80;2.60;;;29.00;48.00;;;;;;5103489;28;20633;-71
2021/05/29 07:05:10;;;;;;;3.27;2.97;;;28.00;49.20;;;;;;5100281;28;20783;-71
2021/05/29 07:07:38;;;;;;;3.33;2.57;;;28.30;50.50;;;;;;5106216;28;20629;-71
2021/05/29 07:10:06;;;;;;;2.40;2.30;;;28.60;47.90;;;;;;5103318;28;20692;-71
2021/05/29 07:12:32;;;;;;;2.60;2.50;;;29.70;48.00;;;;;;5101512;28;20679;-71
2021/05/29 07:14:58;;;;;;;4.13;2.90;;;28.80;48.40;;;;;;5100818;28;20656;-68
2021/05/29 07:17:31;;;;;;;3.17;3.03;;;28.60;46.70;;;;;;5105325;28;20729;-68
2021/05/29 07:19:57;;;;;;;2.70;2.50;;;28.30;47.30;;;;;;5094555;28;20657;-68
2021/05/29 07:22:24;;;;;;;2.40;2.30;;;28.10;47.90;;;;;;5105669;28;20981;-68
2021/05/29 07:24:50;;;;;;;2.70;2.50;;;28.40;48.60;;;;;;5106043;28;20661;-70
2021/05/29 07:27:17;;;;;;;2.40;2.30;;;28.20;47.00;;;;;;5102584;28;20633;-70
2021/05/29 07:29:43;;;;;;;2.50;2.40;;;28.40;50.00;;;;;;5096365;28;20618;-71
2021/05/29 07:32:10;;;;;;;2.60;2.37;;;28.40;49.30;;;;;;5106711;28;20677;-71
2021/05/29 07:34:37;;;;;;;2.80;2.60;;;28.40;48.20;;;;;;5091464;28;20653;-70
2021/05/29 07:37:04;;;;;;;2.53;2.33;;;28.00;49.60;;;;;;5104762;28;20644;-69
2021/05/29 07:39:30;;;;;;;2.30;2.10;;;28.50;48.30;;;;;;5096436;28;20649;-68
2021/05/29 07:41:57;;;;;;;2.23;2.13;;;28.20;47.40;;;;;;5094361;28;20625;-72
2021/05/29 07:44:23;;;;;;;3.13;2.87;;;29.70;45.40;;;;;;5106433;28;20613;-71
2021/05/29 07:46:49;;;;;;;2.53;2.43;;;28.90;45.40;;;;;;5104606;28;20629;-71
2021/05/29 07:49:16;;;;;;;2.50;2.30;;;28.10;47.90;;;;;;5107041;28;20735;-71
2021/05/29 07:51:43;;;;;;;2.27;2.17;;;28.40;46.70;;;;;;5106198;28;21284;-71
2021/05/29 07:54:11;;;;;;;2.53;2.37;;;28.30;47.40;;;;;;5106682;28;20724;-71
2021/05/29 07:56:37;;;;;;;2.23;2.13;;;27.80;48.00;;;;;;5105729;28;20641;-72
2021/05/29 07:59:09;;;;;;;2.70;2.50;;;28.10;45.70;;;;;;5090649;28;20637;-71
2021/05/29 08:01:36;;;;;;;2.70;2.60;;;26.50;48.50;;;;;;5105526;28;20725;-71
2021/05/29 08:04:05;;;;;;;2.50;2.40;;;24.30;51.30;;;;;;5109138;28;20625;-71
2021/05/29 08:06:38;;;;;;;3.43;2.13;;;24.30;50.50;;;;;;5100406;28;20654;-70
2021/05/29 08:09:07;;;;;;;2.43;1.60;;;23.70;50.90;;;;;;5110588;28;21180;-71
2021/05/29 08:11:34;;;;;;;2.47;1.80;;;24.80;48.50;;;;;;5109842;28;20691;-70
2021/05/29 08:14:00;;;;;;;2.20;2.10;;;25.20;49.20;;;;;;5110072;28;20613;-70
2021/05/29 08:16:26;;;;;;;2.60;2.40;;;25.90;47.50;;;;;;5109582;28;20657;-71
2021/05/29 08:18:54;;;;;;;2.17;1.90;;;25.90;47.60;;;;;;5110555;28;20722;-71
2021/05/29 08:21:21;;;;;;;2.20;2.10;;;25.50;48.00;;;;;;5110440;28;20928;-70
2021/05/29 08:23:48;;;;;;;2.00;1.90;;;24.00;48.50;;;;;;5110303;28;20604;-70
2021/05/29 08:26:16;;;;;;;2.23;2.13;;;22.60;52.30;;;;;;5110047;28;20636;-71
2021/05/29 08:28:44;;;;;;;1.93;1.83;;;23.10;50.30;;;;;;5111893;28;20728;-70
2021/05/29 08:31:11;;;;;;;9.70;8.70;;;23.30;49.20;;;;;;5112456;28;20685;-70
2021/05/29 08:33:39;;;;;;;4.27;3.60;;;24.10;50.60;;;;;;5110168;28;20653;-71
2021/05/29 08:36:06;;;;;;;2.00;1.90;;;24.10;48.40;;;;;;5109896;28;20626;-71
2021/05/29 08:38:32;;;;;;;2.20;2.10;;;24.00;48.40;;;;;;5109219;28;20627;-70
2021/05/29 08:40:59;;;;;;;2.10;2.00;;;23.90;48.90;;;;;;5109532;28;21031;-71
2021/05/29 08:43:26;;;;;;;2.57;2.37;;;23.80;48.80;;;;;;5110282;28;20621;-71
2021/05/29 08:45:53;;;;;;;3.67;2.97;;;24.40;48.10;;;;;;5109171;28;20637;-70
2021/05/29 08:48:19;;;;;;;4.20;3.80;;;24.60;48.50;;;;;;5109844;28;20661;-71
2021/05/29 08:53:27;;;;;;;2.90;2.70;;;23.90;51.20;;;;;;5108876;28;20613;-71
2021/05/29 08:55:53;;;;;;;2.47;2.30;;;23.90;50.90;;;;;;5109293;28;20613;-71
2021/05/29 08:58:19;;;;;;;2.40;2.13;;;24.60;51.40;;;;;;5108906;28;20715;-71
2021/05/29 09:00:47;;;;;;;3.10;2.80;;;24.90;50.50;;;;;;5109777;28;21108;-71
2021/05/29 09:03:14;;;;;;;2.80;2.23;;;24.90;49.00;;;;;;5109654;28;20633;-71
2021/05/29 09:05:43;;;;;;;3.17;2.80;;;23.00;50.90;;;;;;5109278;28;20617;-71
2021/05/29 09:08:12;;;;;;;3.00;2.80;;;21.60;53.70;;;;;;5109827;28;20621;-71
2021/05/29 09:10:40;;;;;;;7.87;7.07;;;20.80;55.40;;;;;;5109092;28;20740;-71
2021/05/29 09:13:12;;;;;;;3.03;2.73;;;22.00;55.60;;;;;;5109546;28;20620;-71
2021/05/29 09:15:43;;;;;;;2.60;2.50;;;23.70;54.10;;;;;;5108974;28;20641;-70
2021/05/29 09:18:27;;;;;;;4.03;3.50;;;24.50;52.80;;;;;;5109791;28;21490;-71
2021/05/29 09:20:54;;;;;;;2.40;2.30;;;24.60;52.30;;;;;;5108671;28;20633;-68
2021/05/29 09:23:21;;;;;;;3.40;3.10;;;23.50;54.20;;;;;;5109456;28;20736;-68
2021/05/29 09:25:52;;;;;;;3.10;2.90;;;22.50;53.40;;;;;;5108988;28;20624;-68
2021/05/29 09:28:23;;;;;;;2.90;2.70;;;23.00;53.50;;;;;;5109114;28;20712;-68
2021/05/29 09:30:52;;;;;;;3.60;3.40;;;23.50;52.40;;;;;;5108121;28;21166;-67
2021/05/29 09:33:20;;;;;;;3.30;3.10;;;23.10;53.00;;;;;;5099277;28;21560;-67
2021/05/29 09:35:53;;;;;;;3.47;2.70;;;23.30;53.90;;;;;;5102471;28;20963;-67
2021/05/29 09:38:20;;;;;;;2.50;2.40;;;24.00;51.10;;;;;;5101120;28;20638;-67
2021/05/29 09:40:51;;;;;;;2.33;2.23;;;23.90;52.30;;;;;;5106783;28;20724;-67
2021/05/29 09:43:18;;;;;;;2.50;2.37;;;24.90;50.70;;;;;;5103560;28;20634;-71
2021/05/29 09:45:44;;;;;;;2.17;2.07;;;25.00;50.80;;;;;;5107487;28;20626;-71
2021/05/29 09:48:22;;;;;;;2.73;2.57;;;24.50;52.80;;;;;;5108422;28;20725;-71
2021/05/29 09:51:13;;;;;;;2.70;2.30;;;23.50;53.10;;;;;;5102008;28;22241;-71
2021/05/29 09:53:41;;;;;;;2.37;2.27;;;22.90;53.70;;;;;;5077663;28;20686;-71
2021/05/29 09:56:22;;;;;;;2.43;2.23;;;23.40;51.50;;;;;;5103278;28;20630;-71
2021/05/29 09:58:50;;;;;;;2.77;2.57;;;23.40;54.10;;;;;;5108056;28;20719;-71
2021/05/29 10:01:45;;;;;;;3.10;2.37;;;22.30;53.20;;;;;;5099612;28;20709;-71
2021/05/29 10:04:17;;;;;;;2.50;2.30;;;21.30;55.70;;;;;;5076480;28;20642;-71
2021/05/29 10:06:55;;;;;;;2.77;2.60;;;20.70;55.60;;;;;;5101829;28;20720;-71
2021/05/29 10:09:22;;;;;;;3.90;3.00;;;20.30;58.20;;;;;;5108058;28;20667;-71
2021/05/29 10:11:48;;;;;;;2.03;1.90;;;21.00;55.00;;;;;;5106541;28;20650;-70
2021/05/29 10:14:15;;;;;;;2.20;2.10;;;21.60;53.30;;;;;;5104028;28;20724;-71
2021/05/29 10:16:42;;;;;;;2.40;2.20;;;21.20;52.20;;;;;;5107581;28;20675;-71
2021/05/29 10:19:10;;;;;;;2.93;2.73;;;20.60;53.30;;;;;;5101881;28;20630;-70
2021/05/29 10:21:38;;;;;;;2.33;2.23;;;20.50;53.60;;;;;;5103428;28;20689;-70
2021/05/29 10:24:06;;;;;;;2.77;2.57;;;20.90;58.10;;;;;;5103474;28;20633;-70
2021/05/29 10:26:32;;;;;;;2.10;2.00;;;21.80;57.60;;;;;;5099201;28;21173;-70
2021/05/29 10:29:00;;;;;;;2.20;2.10;;;22.60;57.00;;;;;;5097843;28;20626;-70
2021/05/29 10:31:30;;;;;;;2.47;2.37;;;22.40;57.70;;;;;;5106328;28;20637;-70
2021/05/29 10:33:57;;;;;;;2.63;2.43;;;22.90;57.60;;;;;;5099110;28;20632;-70
2021/05/29 10:36:45;;;;;;;2.40;2.20;;;23.40;55.50;;;;;;5095265;28;21201;-70
2021/05/29 10:39:21;;;;;;;2.77;2.43;;;22.90;52.60;;;;;;5101673;28;20760;-70
2021/05/29 10:41:52;;;;;;;2.40;2.30;;;22.20;53.10;;;;;;5103535;27;20669;-71
2021/05/29 10:44:36;;;;;;;2.30;2.07;;;21.90;54.30;;;;;;5106511;28;20672;-71
2021/05/29 10:47:09;;;;;;;3.10;2.83;;;22.00;53.90;;;;;;5103098;28;20728;-70
2021/05/29 10:50:01;;;;;;;2.90;2.70;;;21.80;55.90;;;;;;5100150;28;21085;-70
2021/05/29 10:52:50;;;;;;;3.13;2.87;;;21.00;59.40;;;;;;5098050;28;20648;-70
2021/05/29 10:55:24;;;;;;;2.70;2.50;;;20.60;59.60;;;;;;5098464;28;21265;-70
2021/05/29 10:57:52;;;;;;;2.80;2.70;;;19.90;59.70;;;;;;5101616;28;20624;-69
2021/05/29 11:01:01;;;;;;;2.50;2.40;;;19.50;60.10;;;;;;5105828;28;20625;-70
2021/05/29 11:03:29;;;;;;;2.60;2.40;;;19.20;60.50;;;;;;5098284;28;20746;-69
2021/05/29 11:05:59;;;;;;;2.80;2.60;;;19.30;62.30;;;;;;5105678;28;21481;-70
2021/05/29 11:08:49;;;;;;;1.97;1.87;;;19.60;60.70;;;;;;5100948;28;20299;-69
2021/05/29 11:11:53;;;;;;;2.80;2.60;;;20.40;61.00;;;;;;5099517;28;20661;-70
2021/05/29 11:14:22;;;;;;;2.97;2.77;;;20.90;56.70;;;;;;5100703;28;20707;-69
2021/05/29 11:17:10;;;;;;;2.40;2.20;;;21.20;60.70;;;;;;5100235;28;20658;-70
2021/05/29 11:19:39;;;;;;;2.07;1.97;;;21.40;56.10;;;;;;5100705;28;21063;-69
2021/05/29 11:22:08;;;;;;;2.10;2.00;;;21.30;55.90;;;;;;5102186;28;21237;-69
2021/05/29 11:24:39;;;;;;;1.87;1.70;;;21.70;55.00;;;;;;5096637;28;21114;-69
2021/05/29 11:27:07;;;;;;;2.13;2.03;;;21.50;53.50;;;;;;5097454;28;20630;-70
2021/05/29 11:29:52;;;;;;;2.10;2.00;;;21.40;51.80;;;;;;5104112;28;20636;-69
2021/05/29 11:32:48;;;;;;;1.90;1.80;;;21.40;55.50;;;;;;5102826;28;20643;-69
2021/05/29 11:35:29;;;;;;;1.90;1.80;;;22.00;55.90;;;;;;5100512;28;21809;-69
2021/05/29 11:38:01;;;;;;;1.60;1.50;;;21.50;50.50;;;;;;5102405;28;20629;-69
2021/05/29 11:40:52;;;;;;;1.80;1.70;;;21.00;50.50;;;;;;5108075;28;20673;-69
2021/05/29 11:43:31;;;;;;;1.90;1.80;;;21.10;51.80;;;;;;5110068;28;20645;-70
2021/05/29 11:45:59;;;;;;;1.83;1.73;;;21.00;52.20;;;;;;5096810;28;20625;-70
2021/05/29 11:48:30;;;;;;;2.07;1.97;;;21.10;56.40;;;;;;5110369;28;20732;-69
2021/05/29 11:51:12;;;;;;;1.70;1.60;;;20.80;55.10;;;;;;5103827;28;20629;-69
2021/05/29 11:53:41;;;;;;;1.90;1.80;;;20.50;55.30;;;;;;5107473;28;20685;-70
2021/05/29 11:56:08;;;;;;;1.75;1.65;;;19.80;53.30;;;;;;5105544;28;20204;-69
2021/05/29 11:58:59;;;;;;;1.80;1.70;;;19.30;54.90;;;;;;5108098;28;20622;-69
2021/05/29 12:01:28;;;;;;;2.08;1.98;;;19.10;55.80;;;;;;5081620;28;20332;-69
2021/05/29 12:03:58;;;;;;;1.70;1.60;;;19.30;55.70;;;;;;5102722;28;20621;-69
2021/05/29 12:06:34;;;;;;;2.30;2.20;;;19.80;54.00;;;;;;5109202;28;20725;-69
2021/05/29 12:09:05;;;;;;;1.52;1.42;;;20.10;52.80;;;;;;5102944;28;20203;-70
2021/05/29 12:11:34;;;;;;;1.70;1.60;;;20.10;51.90;;;;;;5106565;28;20206;-69
2021/05/29 12:14:13;;;;;;;1.58;1.48;;;20.00;55.20;;;;;;5108241;28;20340;-69
2021/05/29 12:16:42;;;;;;;1.95;1.85;;;19.80;54.80;;;;;;5108940;28;20207;-69
2021/05/29 12:19:26;;;;;;;2.45;1.75;;;19.80;54.90;;;;;;5106824;28;20609;-69
2021/05/29 12:21:55;;;;;;;1.67;1.52;;;19.80;57.80;;;;;;5107991;28;20223;-69
2021/05/29 12:24:22;;;;;;;1.92;1.83;;;20.40;55.50;;;;;;5109313;28;20203;-69
2021/05/29 12:26:51;;;;;;;1.73;1.43;;;20.90;54.50;;;;;;5107673;28;20598;-69
2021/05/29 12:29:21;;;;;;;1.53;1.43;;;21.10;53.40;;;;;;5102043;28;20633;-69
2021/05/29 12:31:50;;;;;;;1.93;1.70;;;21.30;52.70;;;;;;5106685;28;20664;-69
2021/05/29 12:34:17;;;;;;;1.47;1.40;;;21.30;54.30;;;;;;5102938;28;21191;-71
2021/05/29 12:37:01;;;;;;;1.43;1.33;;;21.30;53.20;;;;;;5098900;28;21052;-70
2021/05/29 12:39:50;;;;;;;1.93;1.40;;;20.80;53.90;;;;;;5103216;28;20633;-69
2021/05/29 12:42:43;;;;;;;1.50;1.45;;;20.00;53.70;;;;;;5104777;28;20704;-69
2021/05/29 12:45:17;;;;;;;2.25;1.83;;;19.50;53.90;;;;;;5088302;28;20204;-69
2021/05/29 12:47:51;;;;;;;2.17;1.60;;;19.10;55.30;;;;;;5104591;28;20227;-69
2021/05/29 12:50:19;;;;;;;1.38;1.27;;;18.90;56.30;;;;;;5103331;28;20676;-70
2021/05/29 12:52:45;;;;;;;1.55;1.48;;;19.10;55.20;;;;;;5102987;28;20202;-69
2021/05/29 12:55:18;;;;;;;1.67;1.58;;;19.10;56.90;;;;;;5102571;28;20683;-69
2021/05/29 12:57:45;;;;;;;1.50;1.40;;;19.10;56.70;;;;;;5105208;28;20200;-69
2021/05/29 13:00:25;;;;;;;1.23;1.23;;;19.70;58.50;;;;;;5102645;28;20246;-69
2021/05/29 13:08:29;;;;;;;1.70;1.15;;;20.00;56.90;;;;;;5106401;28;20695;-69
2021/05/29 13:10:59;;;;;;;1.55;1.45;;;19.80;57.20;;;;;;5100994;28;20678;-69
2021/05/29 13:13:27;;;;;;;1.83;1.20;;;19.50;57.50;;;;;;5109416;28;20203;-70